Time;durP1;ratioP1;P1;durP2;ratioP2;P2;SDS_P1;SDS_P2;PMS_P1;PMS_P2;Temp;Humidity;BMP_temperature;BMP_pressure;BME280_temperature;BME280_humidity;BME280_pressure;Samples;Min_cycle;Max_cycle;Signal;HPM_P1;HPM_P2
2023/01/14 00:01:45;;;;;;;10.10;1.27;;;;;;;5.02;100.00;99196.13;4991268;28;20489;-57
2023/01/14 00:04:11;;;;;;;5.93;1.17;;;;;;;5.02;100.00;99196.13;4972126;28;20037;-56
2023/01/14 00:06:37;;;;;;;7.80;0.98;;;;;;;5.07;100.00;99193.00;4970097;28;20039;-56
2023/01/14 00:09:06;;;;;;;5.03;1.20;;;;;;;5.02;100.00;99183.56;4973597;28;20022;-56
2023/01/14 00:11:47;;;;;;;9.18;1.23;;;;;;;5.08;100.00;99179.41;4977436;28;20026;-57
2023/01/14 00:14:23;;;;;;;5.65;1.00;;;;;;;5.17;100.00;99199.09;4994876;28;20038;-58
2023/01/14 00:16:51;;;;;;;4.88;0.82;;;;;;;5.18;100.00;99190.03;4973178;28;20064;-57
2023/01/14 00:19:18;;;;;;;8.82;0.93;;;;;;;5.22;100.00;99188.72;4990919;28;20049;-57
2023/01/14 00:21:43;;;;;;;2.95;1.13;;;;;;;5.24;100.00;99189.41;4990910;28;20030;-58
2023/01/14 00:24:13;;;;;;;8.32;1.27;;;;;;;5.14;100.00;99159.19;4988522;28;20107;-58
2023/01/14 00:26:40;;;;;;;5.90;1.08;;;;;;;5.26;100.00;99192.75;4974602;28;20029;-56
2023/01/14 00:29:08;;;;;;;8.48;0.95;;;;;;;5.33;100.00;99182.25;4989759;28;20028;-57
2023/01/14 00:31:33;;;;;;;8.27;0.95;;;;;;;5.26;100.00;99177.50;4974662;28;20030;-58
2023/01/14 00:34:01;;;;;;;6.00;1.08;;;;;;;5.25;100.00;99178.50;4975163;28;20037;-58
2023/01/14 00:36:27;;;;;;;8.40;1.10;;;;;;;5.03;100.00;99134.31;4985718;28;20027;-57
2023/01/14 00:38:53;;;;;;;5.28;1.20;;;;;;;5.20;100.00;99171.94;4991350;28;20030;-57
2023/01/14 00:41:22;;;;;;;9.52;1.60;;;;;;;5.13;100.00;99160.16;4994048;28;20030;-58
2023/01/14 00:43:50;;;;;;;8.45;0.80;;;;;;;5.11;100.00;99162.16;4971089;28;20113;-58
2023/01/14 00:46:31;;;;;;;7.70;1.30;;;;;;;5.07;100.00;99160.81;4993181;28;20037;-57
2023/01/14 00:48:58;;;;;;;11.43;1.30;;;;;;;4.96;100.00;99165.44;4978560;28;20033;-58
2023/01/14 00:51:24;;;;;;;3.67;1.00;;;;;;;4.93;100.00;99165.78;4980248;28;20478;-57
2023/01/14 00:53:49;;;;;;;5.68;0.88;;;;;;;4.95;100.00;99165.59;4993835;28;20030;-57
2023/01/14 00:56:17;;;;;;;5.13;0.93;;;;;;;4.88;100.00;99168.09;4975239;28;20617;-58
2023/01/14 00:58:43;;;;;;;7.72;1.35;;;;;;;4.87;100.00;99181.63;4977722;28;20068;-57
2023/01/14 01:01:08;;;;;;;8.75;1.35;;;;;;;4.92;100.00;99168.59;4993828;28;20112;-57
2023/01/14 01:03:41;;;;;;;6.97;1.25;;;;;;;4.88;100.00;99186.00;4990729;28;20180;-57
2023/01/14 01:06:07;;;;;;;9.55;1.20;;;;;;;4.88;100.00;99177.97;4980049;28;20391;-57
2023/01/14 01:08:34;;;;;;;10.18;1.30;;;;;;;4.89;100.00;99183.16;4973040;28;20475;-57
2023/01/14 01:11:00;;;;;;;12.68;1.33;;;;;;;4.86;100.00;99190.69;4976833;28;20168;-57
2023/01/14 01:13:25;;;;;;;8.15;1.40;;;;;;;4.66;100.00;99195.38;4978115;28;20029;-56
2023/01/14 01:15:52;;;;;;;10.13;1.80;;;;;;;4.46;100.00;99206.28;4976397;28;20031;-57
2023/01/14 01:18:18;;;;;;;10.07;1.45;;;;;;;4.33;100.00;99217.41;4974327;28;20034;-57
2023/01/14 01:20:44;;;;;;;7.43;1.17;;;;;;;4.27;100.00;99218.00;4974954;28;20030;-57
2023/01/14 01:23:13;;;;;;;5.70;1.05;;;;;;;4.25;100.00;99224.53;4978095;28;20042;-57
2023/01/14 01:25:39;;;;;;;3.40;1.00;;;;;;;4.22;100.00;99222.13;4993980;28;20033;-57
2023/01/14 01:28:06;;;;;;;5.78;1.73;;;;;;;4.23;100.00;99218.47;4971414;28;20383;-58
2023/01/14 01:30:32;;;;;;;8.68;1.00;;;;;;;4.27;100.00;99222.50;4977547;28;20045;-58
2023/01/14 01:32:57;;;;;;;7.10;1.10;;;;;;;4.31;100.00;99215.88;4978858;28;20022;-56
2023/01/14 01:35:23;;;;;;;10.48;1.70;;;;;;;4.33;100.00;99212.03;4980088;28;20363;-57
2023/01/14 01:37:50;;;;;;;7.18;1.60;;;;;;;4.43;100.00;99214.66;4992604;28;20401;-57
2023/01/14 01:40:15;;;;;;;4.00;1.33;;;;;;;4.48;100.00;99211.47;4985820;28;20399;-57
2023/01/14 01:42:56;;;;;;;9.00;1.50;;;;;;;4.55;100.00;99221.44;4989668;28;20053;-57
2023/01/14 01:45:36;;;;;;;8.23;1.20;;;;;;;4.56;100.00;99225.81;4975099;28;20117;-68
2023/01/14 01:48:14;;;;;;;11.10;1.30;;;;;;;4.67;100.00;99222.03;4970491;28;20030;-67
2023/01/14 01:50:41;;;;;;;4.25;1.00;;;;;;;4.76;100.00;99233.66;4975717;28;20037;-67
2023/01/14 01:53:07;;;;;;;7.95;1.20;;;;;;;4.79;100.00;99231.53;4977188;28;20121;-68
2023/01/14 01:55:36;;;;;;;5.22;0.98;;;;;;;4.80;100.00;99227.84;4975526;28;20026;-66
2023/01/14 01:58:03;;;;;;;;;;;;;;;4.88;100.00;99228.91;4966534;28;20026;-66
2023/01/14 02:00:28;;;;;;;6.10;1.13;;;;;;;4.91;100.00;99220.53;4983241;28;19910;-67
2023/01/14 02:02:57;;;;;;;8.02;1.05;;;;;;;4.92;100.00;99225.72;4977215;28;20523;-67
2023/01/14 02:05:23;;;;;;;7.85;1.85;;;;;;;4.93;100.00;99221.25;4979800;28;20118;-68
2023/01/14 02:07:48;;;;;;;7.95;2.30;;;;;;;4.88;100.00;99221.69;4970339;28;20120;-67
2023/01/14 02:10:15;;;;;;;11.32;1.58;;;;;;;4.87;100.00;99214.63;4992934;28;20026;-67
2023/01/14 02:12:41;;;;;;;7.72;1.10;;;;;;;4.82;100.00;99206.22;4986855;28;20031;-66
2023/01/14 02:15:21;;;;;;;7.03;1.15;;;;;;;4.80;100.00;99208.25;4981739;28;20031;-68
2023/01/14 02:17:49;;;;;;;21.15;1.98;;;;;;;4.80;100.00;99218.97;4987001;28;20501;-69
2023/01/14 02:20:26;;;;;;;4.23;1.13;;;;;;;4.80;100.00;99214.44;4991777;28;20455;-68
2023/01/14 02:23:29;;;;;;;5.50;1.40;;;;;;;4.73;100.00;99215.22;5001515;28;20282;-67
2023/01/14 02:26:33;;;;;;;6.65;1.33;;;;;;;4.70;100.00;99212.84;4974097;28;20027;-67
2023/01/14 02:29:20;;;;;;;7.55;1.33;;;;;;;4.72;100.00;99216.22;4993267;28;20458;-67
2023/01/14 02:32:13;;;;;;;5.90;1.17;;;;;;;4.69;100.00;99217.38;4991429;28;20064;-67
2023/01/14 02:34:48;;;;;;;5.38;0.60;;;;;;;4.65;100.00;99204.44;4993974;28;20022;-67
2023/01/14 02:37:22;;;;;;;5.32;0.88;;;;;;;4.63;100.00;99211.78;4974349;28;20032;-68
2023/01/14 02:40:08;;;;;;;3.47;1.10;;;;;;;4.57;100.00;99206.03;4987158;28;20030;-67
2023/01/14 02:45:36;;;;;;;4.88;1.25;;;;;;;4.30;100.00;99209.66;4992982;28;20162;-68
2023/01/14 02:48:04;;;;;;;8.10;1.42;;;;;;;4.24;100.00;99217.47;4974474;28;20034;-67
2023/01/14 02:50:31;;;;;;;7.90;1.20;;;;;;;4.13;100.00;99230.06;4975620;28;20040;-66
2023/01/14 02:52:57;;;;;;;8.82;1.30;;;;;;;4.10;100.00;99216.16;4976317;28;20580;-66
2023/01/14 02:55:35;;;;;;;9.00;1.33;;;;;;;4.21;100.00;99223.97;4975306;28;20026;-67
2023/01/14 02:58:17;;;;;;;10.18;1.98;;;;;;;4.28;100.00;99210.81;4983325;28;20172;-67
2023/01/14 03:00:49;;;;;;;7.50;1.45;;;;;;;4.36;100.00;99211.72;4992744;28;20022;-66
2023/01/14 03:03:36;;;;;;;8.77;1.27;;;;;;;4.36;100.00;99213.56;4992599;28;20042;-66
2023/01/14 03:06:40;;;;;;;8.48;1.23;;;;;;;4.31;100.00;99208.66;4971455;28;20023;-66
2023/01/14 03:09:20;;;;;;;4.70;1.45;;;;;;;4.37;100.00;99215.25;4975425;28;20027;-67
2023/01/14 03:12:04;;;;;;;7.47;0.90;;;;;;;4.42;100.00;99223.66;4987784;28;20022;-67
2023/01/14 03:14:44;;;;;;;9.75;1.08;;;;;;;4.44;100.00;99215.47;4991250;28;20038;-65
2023/01/14 03:17:19;;;;;;;3.25;1.42;;;;;;;4.37;100.00;99225.94;4992193;28;20034;-65
2023/01/14 03:19:58;;;;;;;10.50;1.13;;;;;;;4.24;100.00;99215.63;4998140;28;20026;-62
2023/01/14 03:22:27;;;;;;;6.63;0.93;;;;;;;4.04;100.00;99212.25;4974387;28;20034;-62
2023/01/14 03:24:55;;;;;;;6.73;1.30;;;;;;;3.97;100.00;99211.16;4984771;28;20041;-63
2023/01/14 03:27:24;;;;;;;11.13;1.40;;;;;;;3.92;100.00;99213.47;4975558;28;20023;-64
2023/01/14 03:30:03;;;;;;;7.65;1.33;;;;;;;3.99;100.00;99214.53;4991076;28;20042;-64
2023/01/14 03:32:53;;;;;;;7.63;1.00;;;;;;;4.08;100.00;99208.28;4995292;28;20096;-64
2023/01/14 03:35:19;;;;;;;8.32;1.23;;;;;;;4.14;100.00;99210.34;4990904;28;20062;-64
2023/01/14 03:37:51;;;;;;;7.55;1.15;;;;;;;4.18;100.00;99209.03;4989791;28;20384;-64
2023/01/14 03:40:18;;;;;;;7.35;1.67;;;;;;;4.21;100.00;99201.69;4985613;28;20048;-64
2023/01/14 03:42:49;;;;;;;8.32;0.98;;;;;;;4.24;100.00;99199.53;4979546;28;20029;-63
2023/01/14 03:45:27;;;;;;;12.30;1.25;;;;;;;4.24;100.00;99207.59;4966637;28;20018;-55
2023/01/14 03:47:53;;;;;;;10.10;1.33;;;;;;;4.24;100.00;99204.91;4974559;28;20022;-55
2023/01/14 03:50:23;;;;;;;3.63;1.10;;;;;;;4.21;100.00;99201.69;4994763;28;20501;-55
2023/01/14 03:53:06;;;;;;;10.63;1.45;;;;;;;4.21;100.00;99204.38;4981849;28;20030;-55
2023/01/14 03:55:41;;;;;;;6.20;1.10;;;;;;;4.12;100.00;99208.81;4979024;28;20031;-55
2023/01/14 03:58:17;;;;;;;10.23;1.27;;;;;;;4.05;100.00;99195.19;4973518;28;20023;-62
2023/01/14 04:00:53;;;;;;;11.75;1.63;;;;;;;4.01;100.00;99191.16;4973578;28;20026;-64
2023/01/14 04:03:19;;;;;;;5.93;1.33;;;;;;;4.00;100.00;99185.94;4973220;28;20072;-64
2023/01/14 04:05:45;;;;;;;5.97;1.17;;;;;;;4.07;100.00;99174.47;4976781;28;20080;-64
2023/01/14 04:08:11;;;;;;;4.50;1.00;;;;;;;4.12;100.00;99169.50;4974878;28;20488;-64
2023/01/14 04:10:36;;;;;;;8.10;1.00;;;;;;;4.16;100.00;99149.44;4994996;28;20026;-64
2023/01/14 04:15:46;;;;;;;3.63;0.90;;;;;;;4.21;100.00;99148.13;4995683;28;20173;-65
2023/01/14 04:18:11;;;;;;;6.80;1.13;;;;;;;4.22;100.00;99136.41;4979624;28;20105;-65
2023/01/14 04:20:36;;;;;;;9.65;1.30;;;;;;;4.23;100.00;99152.34;4980367;28;20022;-65
2023/01/14 04:23:02;;;;;;;8.68;1.50;;;;;;;4.23;100.00;99143.47;4977040;28;20187;-65
2023/01/14 04:25:27;;;;;;;7.43;1.30;;;;;;;4.26;100.00;99135.97;4994234;28;20037;-65
2023/01/14 04:27:53;;;;;;;7.82;1.52;;;;;;;4.27;100.00;99131.44;4995443;28;20026;-65
2023/01/14 04:30:18;;;;;;;12.10;1.60;;;;;;;4.15;100.00;99129.03;4978150;28;20030;-66
2023/01/14 04:32:44;;;;;;;8.90;1.30;;;;;;;4.21;100.00;99132.06;4976160;28;20026;-66
2023/01/14 04:35:09;;;;;;;10.13;1.33;;;;;;;4.13;100.00;99133.69;4975298;28;20030;-66
2023/01/14 04:37:35;;;;;;;11.13;1.45;;;;;;;4.17;100.00;99121.69;4983424;28;20486;-65
2023/01/14 04:40:00;;;;;;;5.25;1.52;;;;;;;4.15;100.00;99115.63;4991907;28;20386;-66
2023/01/14 04:42:26;;;;;;;4.50;1.20;;;;;;;4.17;100.00;99119.00;4974496;28;20022;-66
2023/01/14 04:44:55;;;;;;;3.53;1.30;;;;;;;4.23;100.00;99130.09;4975245;28;20490;-66
2023/01/14 04:47:20;;;;;;;4.00;1.08;;;;;;;4.24;100.00;99131.75;4994432;28;20066;-66
2023/01/14 04:49:45;;;;;;;9.85;1.40;;;;;;;4.24;100.00;99134.44;4985211;28;20058;-66
2023/01/14 04:52:14;;;;;;;6.20;1.17;;;;;;;4.16;100.00;99117.31;4976351;28;20033;-66
2023/01/14 04:54:39;;;;;;;6.57;1.00;;;;;;;4.22;100.00;99131.06;4978014;28;20033;-66
2023/01/14 04:57:04;;;;;;;7.53;0.82;;;;;;;4.22;100.00;99128.38;4993777;28;20027;-66
2023/01/14 04:59:30;;;;;;;3.00;1.35;;;;;;;4.24;100.00;99126.41;4974666;28;20121;-66
2023/01/14 05:01:55;;;;;;;10.50;1.83;;;;;;;4.26;100.00;99119.06;4993139;28;20022;-66
2023/01/14 05:04:21;;;;;;;6.85;1.10;;;;;;;4.32;100.00;99118.44;4973507;28;20025;-66
2023/01/14 05:06:46;;;;;;;5.85;0.90;;;;;;;4.31;100.00;99127.47;4978260;28;20037;-66
2023/01/14 05:09:13;;;;;;;3.95;0.80;;;;;;;4.30;100.00;99132.00;4994059;28;20084;-66
2023/01/14 05:11:38;;;;;;;4.97;1.00;;;;;;;4.33;100.00;99125.50;4974373;28;20045;-66
2023/01/14 05:14:05;;;;;;;5.15;0.88;;;;;;;4.32;100.00;99123.78;4971003;28;20081;-66
2023/01/14 05:16:30;;;;;;;6.30;0.80;;;;;;;4.30;100.00;99110.56;4966959;28;20027;-67
2023/01/14 05:18:56;;;;;;;8.23;0.70;;;;;;;4.27;100.00;99116.25;4971185;28;20608;-66
2023/01/14 05:21:22;;;;;;;4.53;0.75;;;;;;;4.27;100.00;99113.56;4972952;28;20037;-67
2023/01/14 05:23:48;;;;;;;8.05;0.85;;;;;;;4.26;100.00;99113.72;4993643;28;20050;-65
2023/01/14 05:26:13;;;;;;;9.32;0.93;;;;;;;4.25;100.00;99112.88;4976156;28;20431;-67
2023/01/14 05:28:39;;;;;;;9.32;2.30;;;;;;;4.28;100.00;99122.44;4976378;28;20026;-65
2023/01/14 05:31:05;;;;;;;2.50;0.63;;;;;;;4.28;100.00;99122.44;4969474;28;20069;-66
2023/01/14 05:33:31;;;;;;;7.65;1.10;;;;;;;4.28;100.00;99128.63;4976870;28;20121;-65
2023/01/14 05:35:57;;;;;;;5.72;1.67;;;;;;;4.33;100.00;99120.13;4992771;28;20023;-66
2023/01/14 05:38:23;;;;;;;12.93;1.50;;;;;;;4.34;100.00;99117.28;4976937;28;20154;-66
2023/01/14 05:40:49;;;;;;;5.18;0.88;;;;;;;4.35;100.00;99102.91;4973859;28;20034;-66
2023/01/14 05:46:05;;;;;;;2.17;0.77;;;;;;;4.35;100.00;99097.56;4992718;28;20082;-66
2023/01/14 05:48:30;;;;;;;3.05;0.88;;;;;;;4.33;100.00;99088.00;4969638;28;20069;-67
2023/01/14 05:50:58;;;;;;;11.43;1.08;;;;;;;4.22;100.00;99070.34;4971778;28;20413;-66
2023/01/14 05:53:24;;;;;;;7.60;0.55;;;;;;;4.31;100.00;99079.25;4975113;28;20100;-66
2023/01/14 05:55:50;;;;;;;3.45;0.90;;;;;;;4.34;100.00;99076.25;4993210;28;20037;-67
2023/01/14 05:58:18;;;;;;;4.63;1.15;;;;;;;4.32;100.00;99080.94;4975859;28;20030;-64
2023/01/14 06:06:36;;;;;;;5.57;0.82;;;;;;;4.41;100.00;99057.75;4994714;28;20114;-66
2023/01/14 06:09:05;;;;;;;6.63;1.20;;;;;;;4.47;100.00;99057.09;4973894;28;20104;-66
2023/01/14 06:11:33;;;;;;;5.47;0.85;;;;;;;4.51;100.00;99059.31;4975953;28;20521;-67
2023/01/14 06:14:00;;;;;;;9.20;0.90;;;;;;;4.54;100.00;99067.03;4991089;28;20125;-66
2023/01/14 06:16:28;;;;;;;5.13;1.20;;;;;;;4.55;100.00;99067.88;4976293;28;20026;-66
2023/01/14 06:18:56;;;;;;;8.15;0.82;;;;;;;4.56;100.00;99062.34;4967433;28;20034;-66
2023/01/14 06:21:28;;;;;;;7.57;0.90;;;;;;;4.61;100.00;99064.53;4976624;28;20482;-66
2023/01/14 06:23:55;;;;;;;6.18;0.82;;;;;;;4.64;100.00;99064.25;4974012;28;20031;-67
2023/01/14 06:26:21;;;;;;;8.00;0.90;;;;;;;4.63;100.00;99062.53;4972764;28;20037;-68
2023/01/14 06:28:46;;;;;;;4.05;0.85;;;;;;;4.66;100.00;99064.91;4987642;28;20125;-67
2023/01/14 06:31:17;;;;;;;7.00;1.00;;;;;;;4.68;100.00;99062.06;4971944;28;20466;-68
2023/01/14 06:33:44;;;;;;;8.02;1.17;;;;;;;4.60;100.00;99042.25;5013965;23;20037;-72
2023/01/14 06:36:12;;;;;;;3.80;0.60;;;;;;;4.68;100.00;99044.16;4996111;28;20022;-72
2023/01/14 06:38:38;;;;;;;4.35;0.80;;;;;;;4.74;100.00;99048.03;4994377;28;20034;-73
2023/01/14 06:41:05;;;;;;;4.53;0.70;;;;;;;4.79;100.00;99051.06;4999569;28;20076;-72
2023/01/14 06:43:31;;;;;;;3.40;0.45;;;;;;;4.80;100.00;99048.25;5011168;28;20475;-72
2023/01/14 06:45:57;;;;;;;3.83;0.88;;;;;;;4.70;100.00;99017.19;5003232;28;20064;-74
2023/01/14 06:48:24;;;;;;;7.85;1.00;;;;;;;4.90;100.00;99039.22;4991626;28;20049;-71
2023/01/14 06:50:50;;;;;;;3.78;0.63;;;;;;;4.90;100.00;99026.69;5012023;28;20022;-78
2023/01/14 06:53:15;;;;;;;12.35;1.20;;;;;;;4.83;100.00;99009.56;5013993;28;20164;-78
2023/01/14 06:55:41;;;;;;;7.07;1.05;;;;;;;4.80;100.00;99004.53;5000988;28;20030;-78
2023/01/14 06:58:08;;;;;;;9.13;0.95;;;;;;;4.91;100.00;99027.50;5018743;28;20030;-73
2023/01/14 07:00:34;;;;;;;8.35;1.00;;;;;;;4.93;100.00;99031.72;5011620;28;20034;-73
2023/01/14 07:03:00;;;;;;;4.68;0.98;;;;;;;4.96;100.00;99023.34;5010049;28;20032;-73
2023/01/14 07:05:25;;;;;;;6.00;1.08;;;;;;;4.91;100.00;99006.91;5009171;28;20025;-73
2023/01/14 07:07:52;;;;;;;3.25;0.82;;;;;;;4.87;100.00;98997.47;5012481;28;20034;-74
2023/01/14 07:10:18;;;;;;;4.88;1.00;;;;;;;4.95;100.00;99008.25;5009673;28;20060;-73
2023/01/14 07:12:48;;;;;;;12.40;1.85;;;;;;;4.99;100.00;99014.97;5005374;28;20313;-75
2023/01/14 07:15:15;;;;;;;6.60;1.70;;;;;;;5.09;100.00;99009.47;5010134;28;20084;-75
2023/01/14 07:17:40;;;;;;;5.53;1.80;;;;;;;5.10;100.00;98995.06;5009485;28;20026;-73
2023/01/14 07:20:08;;;;;;;8.23;1.63;;;;;;;5.17;100.00;98992.56;4994754;28;20048;-72
2023/01/14 07:22:34;;;;;;;14.52;3.35;;;;;;;5.25;100.00;98993.41;5010076;28;20403;-73
2023/01/14 07:25:02;;;;;;;12.98;2.10;;;;;;;5.18;100.00;98970.09;4990760;28;20026;-73
2023/01/14 07:27:28;;;;;;;6.53;1.63;;;;;;;5.24;100.00;98981.03;5010932;28;20101;-73
2023/01/14 07:29:54;;;;;;;11.65;1.55;;;;;;;5.20;100.00;98968.09;5013114;28;20057;-78
2023/01/14 07:32:19;;;;;;;6.20;1.30;;;;;;;5.26;100.00;98967.41;4991528;28;20065;-79
2023/01/14 07:34:44;;;;;;;6.63;1.40;;;;;;;5.28;100.00;98970.78;4985674;28;20021;-79
2023/01/14 07:37:10;;;;;;;3.63;1.05;;;;;;;5.27;100.00;98969.94;4993238;28;20483;-78
2023/01/14 07:39:35;;;;;;;4.60;1.00;;;;;;;5.36;100.00;98973.47;5001745;28;20132;-76
2023/01/14 07:42:00;;;;;;;7.60;2.08;;;;;;;5.32;100.00;98958.72;5009810;28;20541;-75
2023/01/14 07:44:26;;;;;;;7.38;1.30;;;;;;;5.42;100.00;98955.88;4998947;28;20029;-76
2023/01/14 07:46:55;;;;;;;7.55;1.27;;;;;;;5.37;100.00;98939.44;5016518;28;20014;-74
2023/01/14 07:49:22;;;;;;;7.60;1.55;;;;;;;5.38;100.00;98944.66;5016280;28;20088;-75
2023/01/14 07:51:48;;;;;;;6.90;1.05;;;;;;;5.31;100.00;98911.44;5017180;28;20026;-76
2023/01/14 07:54:14;;;;;;;7.93;1.17;;;;;;;5.38;100.00;98925.88;4998541;28;20685;-76
2023/01/14 07:56:39;;;;;;;6.43;1.02;;;;;;;5.56;100.00;98930.25;4998409;28;20069;-75
2023/01/14 07:59:04;;;;;;;7.18;1.90;;;;;;;5.55;100.00;98915.13;4997123;28;20387;-76
2023/01/14 08:01:30;;;;;;;9.65;1.77;;;;;;;5.70;100.00;98933.06;5015456;28;20021;-79
2023/01/14 08:03:58;;;;;;;9.30;1.33;;;;;;;5.82;100.00;98930.06;5014912;28;20383;-78
2023/01/14 08:06:23;;;;;;;3.22;1.20;;;;;;;5.72;100.00;98900.69;5001676;28;20953;-78
2023/01/14 08:08:48;;;;;;;5.45;1.27;;;;;;;5.88;100.00;98919.44;4997911;28;20053;-78
2023/01/14 08:11:14;;;;;;;3.25;1.00;;;;;;;5.82;100.00;98909.41;4997491;28;20122;-77
2023/01/14 08:13:39;;;;;;;7.13;1.13;;;;;;;5.93;100.00;98916.25;4996060;28;20084;-75
2023/01/14 08:16:05;;;;;;;5.57;1.20;;;;;;;5.96;100.00;98909.75;5017244;28;20030;-77
2023/01/14 08:18:31;;;;;;;5.82;1.60;;;;;;;5.89;100.00;98917.59;5019272;28;20029;-76
2023/01/14 08:20:58;;;;;;;7.30;1.50;;;;;;;5.81;100.00;98914.94;5014090;28;20022;-75
2023/01/14 08:23:23;;;;;;;6.45;1.50;;;;;;;5.74;100.00;98901.38;5011626;28;20041;-74
2023/01/14 08:25:48;;;;;;;6.80;1.70;;;;;;;5.85;100.00;98903.69;5010788;28;20014;-76
2023/01/14 08:28:14;;;;;;;7.30;1.50;;;;;;;6.06;100.00;98924.66;5016627;28;20085;-76
2023/01/14 08:30:39;;;;;;;7.00;1.80;;;;;;;6.18;100.00;98913.53;4996672;28;20029;-72
2023/01/14 08:33:04;;;;;;;6.03;1.48;;;;;;;6.23;100.00;98908.50;5020523;28;20383;-79
2023/01/14 08:35:30;;;;;;;10.95;1.98;;;;;;;6.35;100.00;98909.78;5000489;28;20037;-77
2023/01/14 08:37:55;;;;;;;4.72;1.17;;;;;;;6.48;100.00;98915.44;5026077;28;20021;-75
2023/01/14 08:40:21;;;;;;;10.13;1.17;;;;;;;6.53;100.00;98912.25;5007570;28;20061;-76
2023/01/14 08:42:47;;;;;;;5.88;1.20;;;;;;;6.48;100.00;98898.50;5014218;28;20497;-76
2023/01/14 08:45:12;;;;;;;7.93;1.50;;;;;;;6.50;100.00;98907.22;4994536;28;20040;-76
2023/01/14 08:47:37;;;;;;;5.38;1.33;;;;;;;6.58;100.00;98908.03;4993821;28;20076;-76
2023/01/14 08:50:03;;;;;;;10.48;1.60;;;;;;;6.54;100.00;98911.22;5014536;28;20026;-76
2023/01/14 08:52:31;;;;;;;5.32;1.00;;;;;;;6.48;100.00;98877.81;5015620;28;20045;-75
2023/01/14 08:54:57;;;;;;;7.70;1.40;;;;;;;6.62;100.00;98889.69;4993988;28;20030;-75
2023/01/14 08:57:22;;;;;;;4.88;0.93;;;;;;;6.61;100.00;98888.00;5013978;28;20399;-76
2023/01/14 08:59:48;;;;;;;8.10;1.45;;;;;;;6.62;100.00;98878.94;5014607;28;20025;-76
2023/01/14 09:02:15;;;;;;;6.88;1.38;;;;;;;6.65;100.00;98885.81;5016148;28;20036;-76
2023/01/14 09:04:40;;;;;;;7.50;0.98;;;;;;;6.61;100.00;98863.00;5015731;28;20484;-76
2023/01/14 09:18:03;;;;;;;7.45;1.42;;;;;;;6.70;100.00;98860.06;5011327;28;20091;-76
2023/01/14 09:20:31;;;;;;;5.63;1.15;;;;;;;6.77;100.00;98871.78;5013283;28;20033;-76
2023/01/14 09:22:57;;;;;;;7.07;1.30;;;;;;;6.74;100.00;98861.38;5013050;28;20025;-75
2023/01/14 09:25:23;;;;;;;9.05;1.30;;;;;;;6.64;100.00;98849.19;5008733;28;20033;-75
2023/01/14 09:27:48;;;;;;;7.45;1.63;;;;;;;6.76;100.00;98861.22;5005820;28;20148;-75
2023/01/14 09:30:13;;;;;;;9.32;1.50;;;;;;;6.73;100.00;98840.03;4997151;28;20037;-78
2023/01/14 09:32:39;;;;;;;8.05;1.70;;;;;;;6.82;100.00;98844.38;4995712;28;20049;-72
2023/01/14 09:35:06;;;;;;;7.45;1.00;;;;;;;6.77;100.00;98839.53;5011009;28;20423;-76
2023/01/14 09:37:33;;;;;;;13.20;1.58;;;;;;;6.88;100.00;98840.13;4993971;28;20032;-75
2023/01/14 09:39:59;;;;;;;11.48;1.83;;;;;;;6.99;100.00;98845.91;4997809;28;20399;-75
2023/01/14 09:42:32;;;;;;;7.40;1.20;;;;;;;6.99;100.00;98837.84;5012331;28;20091;-69
2023/01/14 09:45:25;;;;;;;9.68;1.38;;;;;;;7.06;100.00;98834.44;5006757;28;20496;-76
2023/01/14 09:47:51;;;;;;;8.77;1.73;;;;;;;7.16;100.00;98829.66;5014170;28;20030;-73
2023/01/14 09:50:20;;;;;;;10.70;1.80;;;;;;;7.24;100.00;98824.22;5012719;28;20029;-76
2023/01/14 09:52:54;;;;;;;9.60;2.00;;;;;;;7.31;100.00;98832.38;5009589;28;20026;-76
2023/01/14 09:55:31;;;;;;;4.85;1.40;;;;;;;7.48;100.00;98833.91;5012262;28;20028;-71
2023/01/14 09:58:03;;;;;;;5.55;1.25;;;;;;;7.57;100.00;98827.44;5016081;28;20025;-77
2023/01/14 10:00:48;;;;;;;7.20;1.30;;;;;;;7.61;100.00;98819.81;4999606;28;20026;-77
2023/01/14 10:03:24;;;;;;;9.88;1.40;;;;;;;7.87;100.00;98827.47;5007456;28;20041;-76
2023/01/14 10:06:00;;;;;;;3.42;1.00;;;;;;;8.16;100.00;98815.00;5008844;28;20045;-72
2023/01/14 10:08:32;;;;;;;6.18;1.25;;;;;;;8.39;100.00;98807.66;5032236;28;20026;-73
2023/01/14 10:10:57;;;;;;;9.15;1.52;;;;;;;8.74;100.00;98805.13;5020310;28;20010;-76
2023/01/14 10:13:30;;;;;;;5.85;1.45;;;;;;;9.10;100.00;98798.84;5017712;28;20152;-77
2023/01/14 10:15:58;;;;;;;8.88;1.70;;;;;;;8.96;100.00;98792.47;5024580;28;20030;-76
2023/01/14 10:18:42;;;;;;;3.55;1.02;;;;;;;8.88;100.00;98787.22;5013942;28;20047;-76
2023/01/14 10:21:21;;;;;;;5.88;1.40;;;;;;;8.47;100.00;98772.50;5027351;28;20109;-75
2023/01/14 10:23:47;;;;;;;8.55;1.80;;;;;;;8.25;100.00;98770.75;5012435;28;20030;-76
2023/01/14 10:26:14;;;;;;;9.65;2.72;;;;;;;8.38;100.00;98754.72;5014814;28;20034;-76
2023/01/14 10:28:41;;;;;;;6.75;1.25;;;;;;;8.39;100.00;98753.75;5032801;28;20018;-77
2023/01/14 10:31:16;;;;;;;6.75;1.10;;;;;;;8.30;100.00;98707.16;5030673;28;20098;-77
2023/01/14 10:33:41;;;;;;;4.72;0.98;;;;;;;8.40;100.00;98700.66;5039602;28;20081;-75
2023/01/14 10:36:14;;;;;;;5.45;0.90;;;;;;;8.56;100.00;98695.81;5016025;28;20054;-74
2023/01/14 10:38:42;;;;;;;4.82;0.90;;;;;;;8.58;100.00;98708.31;5016728;28;20026;-73
2023/01/14 10:41:09;;;;;;;3.13;1.00;;;;;;;8.68;100.00;98693.47;4996409;28;20480;-73
2023/01/14 10:43:38;;;;;;;6.80;0.90;;;;;;;8.60;100.00;98692.78;5006058;28;20037;-73
2023/01/14 10:46:05;;;;;;;;;;;;;;;8.65;100.00;98704.63;5013121;28;20022;-73
2023/01/14 10:48:44;;;;;;;4.15;1.00;;;;;;;8.62;100.00;98696.09;5003107;28;20383;-74
2023/01/14 10:51:36;;;;;;;3.33;1.05;;;;;;;8.77;100.00;98692.28;5013726;28;20111;-73
2023/01/14 10:54:16;;;;;;;3.22;0.80;;;;;;;8.76;100.00;98695.19;5008024;28;20500;-73
2023/01/14 10:56:49;;;;;;;4.75;1.00;;;;;;;8.77;100.00;98686.06;5011004;28;20034;-73
2023/01/14 10:59:30;;;;;;;3.08;0.85;;;;;;;8.66;100.00;98687.41;5011705;28;20040;-73
2023/01/14 11:01:56;;;;;;;3.95;1.23;;;;;;;8.64;100.00;98662.50;5013307;28;20037;-74
2023/01/14 11:04:26;;;;;;;4.60;0.77;;;;;;;8.75;100.00;98666.53;5012539;28;20037;-73
2023/01/14 11:06:52;;;;;;;3.53;0.80;;;;;;;8.78;100.00;98652.69;5006176;28;20033;-73
2023/01/14 11:09:23;;;;;;;2.78;0.70;;;;;;;8.83;100.00;98652.94;4994903;28;20026;-73
2023/01/14 11:11:49;;;;;;;5.15;0.90;;;;;;;8.80;100.00;98628.19;5011457;28;20026;-73
2023/01/14 11:14:35;;;;;;;4.80;1.23;;;;;;;8.81;100.00;98640.66;5010737;28;20034;-73
2023/01/14 11:17:20;;;;;;;3.53;0.80;;;;;;;8.75;100.00;98623.38;5011076;28;20022;-74
2023/01/14 11:19:46;;;;;;;2.65;0.70;;;;;;;8.88;100.00;98623.50;5009167;28;20040;-72
2023/01/14 11:22:12;;;;;;;2.15;0.93;;;;;;;8.80;100.00;98610.13;5009141;28;20038;-73
2023/01/14 11:24:40;;;;;;;5.28;0.75;;;;;;;8.84;100.00;98622.22;5007625;28;20022;-73
2023/01/14 11:27:13;;;;;;;3.85;0.52;;;;;;;8.78;100.00;98612.22;5007499;28;20365;-73
2023/01/14 11:29:51;;;;;;;2.08;0.77;;;;;;;8.76;100.00;98604.31;5010394;28;20044;-73
2023/01/14 11:32:24;;;;;;;3.85;1.15;;;;;;;8.69;100.00;98603.41;4992242;28;20120;-74
2023/01/14 11:34:57;;;;;;;5.15;1.38;;;;;;;8.80;100.00;98610.13;5006128;28;20022;-73
2023/01/14 11:37:25;;;;;;;4.05;0.98;;;;;;;8.80;100.00;98609.31;5003431;28;20057;-73
2023/01/14 11:39:55;;;;;;;2.30;0.80;;;;;;;8.98;100.00;98599.66;4994437;28;20093;-74
2023/01/14 11:42:22;;;;;;;4.18;1.00;;;;;;;9.25;100.00;98605.25;5012308;28;20100;-73
2023/01/14 11:45:00;;;;;;;3.45;0.75;;;;;;;9.41;100.00;98586.00;4994663;28;20496;-73
2023/01/14 11:47:26;;;;;;;3.03;1.17;;;;;;;9.52;100.00;98581.88;5004549;28;20026;-74
2023/01/14 11:50:15;;;;;;;4.55;1.63;;;;;;;9.54;100.00;98582.53;4993235;28;20026;-74
2023/01/14 11:52:40;;;;;;;2.75;1.25;;;;;;;9.69;100.00;98544.53;5004694;28;20496;-73
2023/01/14 11:55:16;;;;;;;5.28;1.40;;;;;;;9.82;100.00;98559.94;5010210;28;20045;-73
2023/01/14 11:57:43;;;;;;;4.88;0.70;;;;;;;9.75;100.00;98553.72;5011190;28;20510;-73
2023/01/14 12:00:11;;;;;;;4.20;1.17;;;;;;;9.49;100.00;98543.66;5014467;28;20502;-73
2023/01/14 12:02:43;;;;;;;5.45;0.80;;;;;;;9.62;100.00;98541.00;5015207;28;20335;-73
2023/01/14 12:05:11;;;;;;;3.97;1.00;;;;;;;9.61;100.00;98550.13;5016912;28;20046;-74
2023/01/14 12:07:45;;;;;;;3.33;0.70;;;;;;;9.46;100.00;98527.84;5031801;28;20018;-74